sensor_id;sensor_type;location;lat;lon;timestamp;P1;durP1;ratioP1;P2;durP2;ratioP2
71806;SDS011;59655;42.590;23.364;2022-10-16T00:01:11;22.33;;;9.98;;
71806;SDS011;59655;42.590;23.364;2022-10-16T00:03:38;19.25;;;8.43;;
71806;SDS011;59655;42.590;23.364;2022-10-16T00:06:04;17.63;;;8.90;;
71806;SDS011;59655;42.590;23.364;2022-10-16T00:08:30;17.75;;;8.30;;
71806;SDS011;59655;42.590;23.364;2022-10-16T00:11:00;17.92;;;8.13;;
71806;SDS011;59655;42.590;23.364;2022-10-16T00:13:27;19.20;;;8.38;;
71806;SDS011;59655;42.590;23.364;2022-10-16T00:15:54;17.50;;;8.27;;
71806;SDS011;59655;42.590;23.364;2022-10-16T00:18:21;16.95;;;8.68;;
71806;SDS011;59655;42.590;23.364;2022-10-16T00:20:46;16.42;;;8.35;;
71806;SDS011;59655;42.590;23.364;2022-10-16T00:23:12;21.23;;;8.88;;
71806;SDS011;59655;42.590;23.364;2022-10-16T00:25:37;17.02;;;8.25;;
71806;SDS011;59655;42.590;23.364;2022-10-16T00:28:02;20.48;;;8.95;;
71806;SDS011;59655;42.590;23.364;2022-10-16T00:30:28;18.65;;;9.07;;
71806;SDS011;59655;42.590;23.364;2022-10-16T00:32:54;18.95;;;8.80;;
71806;SDS011;59655;42.590;23.364;2022-10-16T00:35:20;19.92;;;9.02;;
71806;SDS011;59655;42.590;23.364;2022-10-16T00:37:45;20.50;;;9.02;;
71806;SDS011;59655;42.590;23.364;2022-10-16T00:40:11;17.45;;;9.18;;
71806;SDS011;59655;42.590;23.364;2022-10-16T00:42:36;20.00;;;9.63;;
71806;SDS011;59655;42.590;23.364;2022-10-16T00:45:02;18.85;;;8.48;;
71806;SDS011;59655;42.590;23.364;2022-10-16T00:47:39;20.63;;;9.13;;
71806;SDS011;59655;42.590;23.364;2022-10-16T00:52:32;16.35;;;8.27;;
71806;SDS011;59655;42.590;23.364;2022-10-16T00:54:57;17.85;;;8.77;;
71806;SDS011;59655;42.590;23.364;2022-10-16T00:57:23;18.58;;;9.18;;
71806;SDS011;59655;42.590;23.364;2022-10-16T00:59:50;19.92;;;8.90;;
71806;SDS011;59655;42.590;23.364;2022-10-16T01:02:16;18.20;;;9.45;;
71806;SDS011;59655;42.590;23.364;2022-10-16T01:04:48;19.08;;;9.02;;
71806;SDS011;59655;42.590;23.364;2022-10-16T01:13:04;19.75;;;8.73;;
71806;SDS011;59655;42.590;23.364;2022-10-16T01:15:41;19.05;;;9.07;;
71806;SDS011;59655;42.590;23.364;2022-10-16T01:18:23;15.02;;;8.27;;
71806;SDS011;59655;42.590;23.364;2022-10-16T01:20:59;19.00;;;8.07;;
71806;SDS011;59655;42.590;23.364;2022-10-16T01:29:03;15.80;;;7.43;;
71806;SDS011;59655;42.590;23.364;2022-10-16T01:31:47;17.25;;;7.20;;
71806;SDS011;59655;42.590;23.364;2022-10-16T01:34:23;20.75;;;7.88;;
71806;SDS011;59655;42.590;23.364;2022-10-16T01:37:02;17.25;;;7.57;;
71806;SDS011;59655;42.590;23.364;2022-10-16T01:39:31;23.38;;;9.73;;
71806;SDS011;59655;42.590;23.364;2022-10-16T01:42:04;30.13;;;10.60;;
71806;SDS011;59655;42.590;23.364;2022-10-16T01:44:34;25.73;;;10.57;;
71806;SDS011;59655;42.590;23.364;2022-10-16T01:47:02;21.27;;;8.93;;
71806;SDS011;59655;42.590;23.364;2022-10-16T01:49:33;21.10;;;8.52;;
71806;SDS011;59655;42.590;23.364;2022-10-16T01:52:05;34.97;;;10.98;;
71806;SDS011;59655;42.590;23.364;2022-10-16T01:54:34;59.65;;;17.15;;
71806;SDS011;59655;42.590;23.364;2022-10-16T01:57:01;56.25;;;14.80;;
71806;SDS011;59655;42.590;23.364;2022-10-16T01:59:31;51.67;;;12.90;;
71806;SDS011;59655;42.590;23.364;2022-10-16T02:01:59;23.67;;;8.85;;
71806;SDS011;59655;42.590;23.364;2022-10-16T02:06:56;13.32;;;6.97;;
71806;SDS011;59655;42.590;23.364;2022-10-16T02:09:22;13.57;;;6.95;;
71806;SDS011;59655;42.590;23.364;2022-10-16T02:11:47;14.77;;;6.55;;
71806;SDS011;59655;42.590;23.364;2022-10-16T02:14:15;13.23;;;6.90;;
71806;SDS011;59655;42.590;23.364;2022-10-16T02:16:42;10.43;;;6.70;;
71806;SDS011;59655;42.590;23.364;2022-10-16T02:19:08;14.57;;;7.20;;
71806;SDS011;59655;42.590;23.364;2022-10-16T02:21:40;13.80;;;6.63;;
71806;SDS011;59655;42.590;23.364;2022-10-16T02:26:52;15.85;;;7.88;;
71806;SDS011;59655;42.590;23.364;2022-10-16T02:29:27;14.98;;;7.93;;
71806;SDS011;59655;42.590;23.364;2022-10-16T02:31:57;18.00;;;7.65;;
71806;SDS011;59655;42.590;23.364;2022-10-16T02:34:26;18.98;;;9.10;;
71806;SDS011;59655;42.590;23.364;2022-10-16T02:36:53;17.40;;;8.25;;
71806;SDS011;59655;42.590;23.364;2022-10-16T02:39:20;16.65;;;8.48;;
71806;SDS011;59655;42.590;23.364;2022-10-16T02:41:46;15.63;;;8.02;;
71806;SDS011;59655;42.590;23.364;2022-10-16T02:44:12;16.83;;;8.18;;
71806;SDS011;59655;42.590;23.364;2022-10-16T02:46:37;17.65;;;8.30;;
71806;SDS011;59655;42.590;23.364;2022-10-16T02:49:03;20.48;;;8.60;;
71806;SDS011;59655;42.590;23.364;2022-10-16T02:51:28;18.52;;;8.95;;
71806;SDS011;59655;42.590;23.364;2022-10-16T02:53:54;17.45;;;8.38;;
71806;SDS011;59655;42.590;23.364;2022-10-16T02:56:20;20.77;;;8.70;;
71806;SDS011;59655;42.590;23.364;2022-10-16T02:58:45;17.58;;;8.35;;
71806;SDS011;59655;42.590;23.364;2022-10-16T03:01:10;17.55;;;8.80;;
71806;SDS011;59655;42.590;23.364;2022-10-16T03:03:37;19.77;;;8.95;;
71806;SDS011;59655;42.590;23.364;2022-10-16T03:06:03;20.17;;;9.00;;
71806;SDS011;59655;42.590;23.364;2022-10-16T03:08:29;17.08;;;7.97;;
71806;SDS011;59655;42.590;23.364;2022-10-16T03:10:54;17.65;;;8.07;;
71806;SDS011;59655;42.590;23.364;2022-10-16T03:13:19;17.02;;;8.25;;
71806;SDS011;59655;42.590;23.364;2022-10-16T03:15:45;17.65;;;8.30;;
71806;SDS011;59655;42.590;23.364;2022-10-16T03:18:10;20.65;;;8.30;;
71806;SDS011;59655;42.590;23.364;2022-10-16T03:20:36;16.23;;;8.43;;
71806;SDS011;59655;42.590;23.364;2022-10-16T03:23:01;17.27;;;8.82;;
71806;SDS011;59655;42.590;23.364;2022-10-16T03:25:27;21.75;;;9.38;;
71806;SDS011;59655;42.590;23.364;2022-10-16T03:27:53;44.92;;;18.23;;
71806;SDS011;59655;42.590;23.364;2022-10-16T03:30:18;31.92;;;14.05;;
71806;SDS011;59655;42.590;23.364;2022-10-16T03:32:44;21.55;;;11.65;;
71806;SDS011;59655;42.590;23.364;2022-10-16T03:35:10;23.38;;;11.73;;
71806;SDS011;59655;42.590;23.364;2022-10-16T03:37:35;23.08;;;12.77;;
71806;SDS011;59655;42.590;23.364;2022-10-16T03:40:01;24.85;;;12.48;;
71806;SDS011;59655;42.590;23.364;2022-10-16T03:42:28;26.15;;;12.75;;
71806;SDS011;59655;42.590;23.364;2022-10-16T03:44:53;20.67;;;10.73;;
71806;SDS011;59655;42.590;23.364;2022-10-16T03:47:18;26.08;;;13.30;;
71806;SDS011;59655;42.590;23.364;2022-10-16T03:49:46;23.13;;;12.57;;
71806;SDS011;59655;42.590;23.364;2022-10-16T03:52:12;28.50;;;13.20;;
71806;SDS011;59655;42.590;23.364;2022-10-16T03:54:37;23.13;;;12.38;;
71806;SDS011;59655;42.590;23.364;2022-10-16T03:57:03;30.35;;;11.93;;
71806;SDS011;59655;42.590;23.364;2022-10-16T03:59:28;28.42;;;11.60;;
71806;SDS011;59655;42.590;23.364;2022-10-16T04:01:54;26.05;;;12.93;;
71806;SDS011;59655;42.590;23.364;2022-10-16T04:04:19;26.33;;;12.85;;
71806;SDS011;59655;42.590;23.364;2022-10-16T04:06:44;25.95;;;13.82;;
71806;SDS011;59655;42.590;23.364;2022-10-16T04:09:10;26.35;;;13.85;;
71806;SDS011;59655;42.590;23.364;2022-10-16T04:11:35;25.45;;;13.55;;
71806;SDS011;59655;42.590;23.364;2022-10-16T04:14:00;24.73;;;11.90;;
71806;SDS011;59655;42.590;23.364;2022-10-16T04:16:26;23.50;;;12.27;;
71806;SDS011;59655;42.590;23.364;2022-10-16T04:18:51;23.92;;;12.77;;
71806;SDS011;59655;42.590;23.364;2022-10-16T04:21:16;23.95;;;11.85;;
71806;SDS011;59655;42.590;23.364;2022-10-16T04:23:42;25.48;;;12.32;;
71806;SDS011;59655;42.590;23.364;2022-10-16T04:26:07;27.88;;;13.38;;
71806;SDS011;59655;42.590;23.364;2022-10-16T04:28:33;26.08;;;13.52;;
71806;SDS011;59655;42.590;23.364;2022-10-16T04:30:58;22.75;;;13.40;;
71806;SDS011;59655;42.590;23.364;2022-10-16T04:33:23;25.52;;;14.40;;
71806;SDS011;59655;42.590;23.364;2022-10-16T04:35:55;22.77;;;13.35;;
71806;SDS011;59655;42.590;23.364;2022-10-16T04:38:22;29.52;;;13.48;;
71806;SDS011;59655;42.590;23.364;2022-10-16T04:40:47;30.50;;;14.23;;
71806;SDS011;59655;42.590;23.364;2022-10-16T04:43:12;26.33;;;13.63;;
71806;SDS011;59655;42.590;23.364;2022-10-16T04:45:38;29.75;;;13.40;;
71806;SDS011;59655;42.590;23.364;2022-10-16T04:48:03;30.88;;;15.05;;
71806;SDS011;59655;42.590;23.364;2022-10-16T04:50:28;33.17;;;16.33;;
71806;SDS011;59655;42.590;23.364;2022-10-16T04:52:54;33.90;;;17.55;;
71806;SDS011;59655;42.590;23.364;2022-10-16T04:55:19;36.90;;;15.40;;
71806;SDS011;59655;42.590;23.364;2022-10-16T04:57:45;25.70;;;12.07;;
71806;SDS011;59655;42.590;23.364;2022-10-16T05:00:10;25.13;;;13.27;;
71806;SDS011;59655;42.590;23.364;2022-10-16T05:02:36;26.58;;;13.15;;
71806;SDS011;59655;42.590;23.364;2022-10-16T05:05:01;29.58;;;14.68;;
71806;SDS011;59655;42.590;23.364;2022-10-16T05:07:27;30.45;;;16.08;;
71806;SDS011;59655;42.590;23.364;2022-10-16T05:09:52;33.33;;;18.17;;
71806;SDS011;59655;42.590;23.364;2022-10-16T05:12:18;31.27;;;17.58;;
71806;SDS011;59655;42.590;23.364;2022-10-16T05:14:44;31.05;;;17.80;;
71806;SDS011;59655;42.590;23.364;2022-10-16T05:17:10;33.75;;;15.55;;
71806;SDS011;59655;42.590;23.364;2022-10-16T05:19:36;37.72;;;17.70;;
71806;SDS011;59655;42.590;23.364;2022-10-16T05:22:01;37.50;;;17.05;;
71806;SDS011;59655;42.590;23.364;2022-10-16T05:24:27;35.83;;;17.25;;
71806;SDS011;59655;42.590;23.364;2022-10-16T05:26:52;41.20;;;18.10;;
71806;SDS011;59655;42.590;23.364;2022-10-16T05:29:18;34.00;;;18.55;;
71806;SDS011;59655;42.590;23.364;2022-10-16T05:31:44;37.40;;;17.52;;
71806;SDS011;59655;42.590;23.364;2022-10-16T05:34:10;31.50;;;16.65;;
71806;SDS011;59655;42.590;23.364;2022-10-16T05:36:35;32.97;;;17.58;;
71806;SDS011;59655;42.590;23.364;2022-10-16T05:39:00;39.35;;;17.17;;
71806;SDS011;59655;42.590;23.364;2022-10-16T05:41:26;32.67;;;15.27;;
71806;SDS011;59655;42.590;23.364;2022-10-16T05:43:52;27.55;;;13.10;;
71806;SDS011;59655;42.590;23.364;2022-10-16T05:46:17;39.15;;;14.52;;
71806;SDS011;59655;42.590;23.364;2022-10-16T05:48:43;41.72;;;18.23;;
71806;SDS011;59655;42.590;23.364;2022-10-16T05:51:09;38.25;;;15.90;;
71806;SDS011;59655;42.590;23.364;2022-10-16T05:53:36;33.28;;;15.43;;
71806;SDS011;59655;42.590;23.364;2022-10-16T05:56:03;33.33;;;16.35;;
71806;SDS011;59655;42.590;23.364;2022-10-16T05:58:29;30.00;;;12.73;;
71806;SDS011;59655;42.590;23.364;2022-10-16T06:00:59;24.48;;;12.38;;
71806;SDS011;59655;42.590;23.364;2022-10-16T06:03:26;31.45;;;13.32;;
71806;SDS011;59655;42.590;23.364;2022-10-16T06:05:52;22.35;;;13.60;;
71806;SDS011;59655;42.590;23.364;2022-10-16T06:08:19;26.00;;;13.90;;
71806;SDS011;59655;42.590;23.364;2022-10-16T06:10:46;28.77;;;14.00;;
71806;SDS011;59655;42.590;23.364;2022-10-16T06:13:12;26.85;;;14.75;;
71806;SDS011;59655;42.590;23.364;2022-10-16T06:15:39;31.48;;;16.33;;
71806;SDS011;59655;42.590;23.364;2022-10-16T06:18:07;29.83;;;16.60;;
71806;SDS011;59655;42.590;23.364;2022-10-16T06:23:00;29.33;;;15.20;;
71806;SDS011;59655;42.590;23.364;2022-10-16T06:25:26;26.25;;;13.55;;
71806;SDS011;59655;42.590;23.364;2022-10-16T06:27:51;23.13;;;11.85;;
71806;SDS011;59655;42.590;23.364;2022-10-16T06:30:16;23.60;;;12.40;;
71806;SDS011;59655;42.590;23.364;2022-10-16T06:32:42;27.48;;;12.63;;
71806;SDS011;59655;42.590;23.364;2022-10-16T06:35:07;24.75;;;12.38;;
71806;SDS011;59655;42.590;23.364;2022-10-16T06:37:33;24.85;;;12.60;;
71806;SDS011;59655;42.590;23.364;2022-10-16T06:39:58;27.27;;;12.48;;
71806;SDS011;59655;42.590;23.364;2022-10-16T06:42:25;28.20;;;13.68;;
71806;SDS011;59655;42.590;23.364;2022-10-16T06:44:50;24.48;;;12.90;;
71806;SDS011;59655;42.590;23.364;2022-10-16T06:47:15;23.75;;;12.27;;
71806;SDS011;59655;42.590;23.364;2022-10-16T06:49:41;27.02;;;13.15;;
71806;SDS011;59655;42.590;23.364;2022-10-16T06:52:06;23.55;;;11.65;;
71806;SDS011;59655;42.590;23.364;2022-10-16T06:54:31;24.92;;;13.25;;
71806;SDS011;59655;42.590;23.364;2022-10-16T06:56:57;32.55;;;13.88;;
71806;SDS011;59655;42.590;23.364;2022-10-16T06:59:24;24.63;;;11.27;;
71806;SDS011;59655;42.590;23.364;2022-10-16T07:01:50;28.17;;;13.82;;
71806;SDS011;59655;42.590;23.364;2022-10-16T07:04:15;26.08;;;12.70;;
71806;SDS011;59655;42.590;23.364;2022-10-16T07:06:41;29.23;;;13.23;;
71806;SDS011;59655;42.590;23.364;2022-10-16T07:09:07;27.75;;;13.95;;
71806;SDS011;59655;42.590;23.364;2022-10-16T07:11:34;26.70;;;13.50;;
71806;SDS011;59655;42.590;23.364;2022-10-16T07:14:02;30.17;;;14.10;;
71806;SDS011;59655;42.590;23.364;2022-10-16T07:16:28;29.33;;;14.27;;
71806;SDS011;59655;42.590;23.364;2022-10-16T07:18:56;25.15;;;13.30;;
71806;SDS011;59655;42.590;23.364;2022-10-16T07:21:26;25.95;;;12.95;;
71806;SDS011;59655;42.590;23.364;2022-10-16T07:23:54;25.05;;;13.20;;
71806;SDS011;59655;42.590;23.364;2022-10-16T07:26:24;26.10;;;13.70;;
71806;SDS011;59655;42.590;23.364;2022-10-16T07:28:50;25.45;;;13.02;;
71806;SDS011;59655;42.590;23.364;2022-10-16T07:31:16;25.33;;;12.38;;
71806;SDS011;59655;42.590;23.364;2022-10-16T07:33:43;25.60;;;12.65;;
71806;SDS011;59655;42.590;23.364;2022-10-16T07:36:10;28.58;;;14.20;;
71806;SDS011;59655;42.590;23.364;2022-10-16T07:38:36;26.83;;;12.88;;
71806;SDS011;59655;42.590;23.364;2022-10-16T07:41:04;25.48;;;13.18;;
71806;SDS011;59655;42.590;23.364;2022-10-16T07:43:31;29.77;;;12.52;;
71806;SDS011;59655;42.590;23.364;2022-10-16T07:45:57;28.70;;;13.05;;
71806;SDS011;59655;42.590;23.364;2022-10-16T07:48:23;30.55;;;12.50;;
71806;SDS011;59655;42.590;23.364;2022-10-16T07:50:51;26.42;;;11.35;;
71806;SDS011;59655;42.590;23.364;2022-10-16T07:53:16;34.90;;;11.73;;
71806;SDS011;59655;42.590;23.364;2022-10-16T07:55:42;22.52;;;12.25;;
71806;SDS011;59655;42.590;23.364;2022-10-16T07:58:09;24.95;;;12.90;;
71806;SDS011;59655;42.590;23.364;2022-10-16T08:00:36;27.67;;;13.20;;
71806;SDS011;59655;42.590;23.364;2022-10-16T08:03:02;25.80;;;12.45;;
71806;SDS011;59655;42.590;23.364;2022-10-16T08:05:28;21.88;;;12.35;;
71806;SDS011;59655;42.590;23.364;2022-10-16T08:07:54;27.30;;;13.32;;
71806;SDS011;59655;42.590;23.364;2022-10-16T08:10:20;27.80;;;13.82;;
71806;SDS011;59655;42.590;23.364;2022-10-16T08:12:46;28.10;;;13.23;;
71806;SDS011;59655;42.590;23.364;2022-10-16T08:15:12;23.83;;;11.65;;
71806;SDS011;59655;42.590;23.364;2022-10-16T08:17:37;27.27;;;12.25;;
71806;SDS011;59655;42.590;23.364;2022-10-16T08:20:03;26.05;;;13.48;;
71806;SDS011;59655;42.590;23.364;2022-10-16T08:22:29;28.33;;;13.70;;
71806;SDS011;59655;42.590;23.364;2022-10-16T08:24:54;24.60;;;10.10;;
71806;SDS011;59655;42.590;23.364;2022-10-16T08:27:20;24.27;;;12.88;;
71806;SDS011;59655;42.590;23.364;2022-10-16T08:29:45;28.48;;;13.65;;
71806;SDS011;59655;42.590;23.364;2022-10-16T08:32:11;25.90;;;12.70;;
71806;SDS011;59655;42.590;23.364;2022-10-16T08:34:36;29.15;;;12.40;;
71806;SDS011;59655;42.590;23.364;2022-10-16T08:37:02;30.85;;;14.13;;
71806;SDS011;59655;42.590;23.364;2022-10-16T08:39:27;23.23;;;10.63;;
71806;SDS011;59655;42.590;23.364;2022-10-16T08:47:45;23.33;;;9.98;;
71806;SDS011;59655;42.590;23.364;2022-10-16T08:50:21;26.45;;;10.75;;
71806;SDS011;59655;42.590;23.364;2022-10-16T08:52:52;24.27;;;10.30;;
71806;SDS011;59655;42.590;23.364;2022-10-16T08:58:13;21.48;;;9.73;;
71806;SDS011;59655;42.590;23.364;2022-10-16T09:00:40;21.88;;;10.13;;
71806;SDS011;59655;42.590;23.364;2022-10-16T09:06:01;27.83;;;11.65;;
71806;SDS011;59655;42.590;23.364;2022-10-16T09:13:40;26.50;;;11.45;;
71806;SDS011;59655;42.590;23.364;2022-10-16T09:16:21;32.45;;;12.70;;
71806;SDS011;59655;42.590;23.364;2022-10-16T09:23:53;35.08;;;13.63;;
71806;SDS011;59655;42.590;23.364;2022-10-16T09:26:22;26.90;;;12.27;;
71806;SDS011;59655;42.590;23.364;2022-10-16T09:28:48;27.65;;;12.93;;
71806;SDS011;59655;42.590;23.364;2022-10-16T09:31:15;30.83;;;12.30;;
71806;SDS011;59655;42.590;23.364;2022-10-16T09:33:43;28.30;;;12.68;;
71806;SDS011;59655;42.590;23.364;2022-10-16T09:36:10;28.65;;;12.38;;
71806;SDS011;59655;42.590;23.364;2022-10-16T09:38:38;33.95;;;12.45;;
71806;SDS011;59655;42.590;23.364;2022-10-16T09:41:12;24.42;;;12.27;;
71806;SDS011;59655;42.590;23.364;2022-10-16T09:43:54;24.40;;;10.50;;
71806;SDS011;59655;42.590;23.364;2022-10-16T09:48:53;27.38;;;10.48;;
71806;SDS011;59655;42.590;23.364;2022-10-16T09:51:28;24.08;;;11.45;;
71806;SDS011;59655;42.590;23.364;2022-10-16T09:53:56;27.10;;;10.82;;
71806;SDS011;59655;42.590;23.364;2022-10-16T09:56:28;20.17;;;9.77;;
71806;SDS011;59655;42.590;23.364;2022-10-16T09:58:58;30.38;;;11.77;;
71806;SDS011;59655;42.590;23.364;2022-10-16T10:01:48;30.35;;;10.13;;
71806;SDS011;59655;42.590;23.364;2022-10-16T10:04:16;20.83;;;9.65;;
71806;SDS011;59655;42.590;23.364;2022-10-16T10:06:49;23.27;;;9.90;;
71806;SDS011;59655;42.590;23.364;2022-10-16T10:11:59;25.10;;;10.75;;
71806;SDS011;59655;42.590;23.364;2022-10-16T10:14:36;25.75;;;9.50;;
71806;SDS011;59655;42.590;23.364;2022-10-16T10:19:36;24.88;;;10.15;;
71806;SDS011;59655;42.590;23.364;2022-10-16T10:39:09;21.83;;;8.68;;
71806;SDS011;59655;42.590;23.364;2022-10-16T10:47:26;28.75;;;8.25;;
71806;SDS011;59655;42.590;23.364;2022-10-16T10:50:07;19.92;;;9.20;;
71806;SDS011;59655;42.590;23.364;2022-10-16T11:01:04;22.92;;;8.50;;
71806;SDS011;59655;42.590;23.364;2022-10-16T11:04:25;23.80;;;10.02;;
71806;SDS011;59655;42.590;23.364;2022-10-16T11:06:58;28.55;;;10.00;;
71806;SDS011;59655;42.590;23.364;2022-10-16T11:09:34;28.73;;;8.80;;
71806;SDS011;59655;42.590;23.364;2022-10-16T11:14:40;23.67;;;9.30;;
71806;SDS011;59655;42.590;23.364;2022-10-16T11:17:12;20.23;;;8.75;;
71806;SDS011;59655;42.590;23.364;2022-10-16T11:22:32;25.42;;;9.40;;
71806;SDS011;59655;42.590;23.364;2022-10-16T11:25:16;28.23;;;9.60;;
71806;SDS011;59655;42.590;23.364;2022-10-16T11:36:43;17.58;;;9.05;;
71806;SDS011;59655;42.590;23.364;2022-10-16T11:39:21;23.20;;;7.70;;
71806;SDS011;59655;42.590;23.364;2022-10-16T11:49:49;25.05;;;8.82;;
71806;SDS011;59655;42.590;23.364;2022-10-16T11:52:23;17.20;;;6.88;;
71806;SDS011;59655;42.590;23.364;2022-10-16T11:54:59;20.67;;;7.32;;
71806;SDS011;59655;42.590;23.364;2022-10-16T11:57:32;12.70;;;7.30;;
71806;SDS011;59655;42.590;23.364;2022-10-16T12:02:48;13.77;;;6.25;;
71806;SDS011;59655;42.590;23.364;2022-10-16T12:10:23;13.65;;;5.90;;
71806;SDS011;59655;42.590;23.364;2022-10-16T12:12:51;10.90;;;5.07;;
71806;SDS011;59655;42.590;23.364;2022-10-16T12:17:46;31.45;;;6.18;;
71806;SDS011;59655;42.590;23.364;2022-10-16T12:22:41;12.43;;;6.85;;
71806;SDS011;59655;42.590;23.364;2022-10-16T12:30:26;22.58;;;5.53;;
71806;SDS011;59655;42.590;23.364;2022-10-16T12:32:56;12.48;;;5.97;;
71806;SDS011;59655;42.590;23.364;2022-10-16T12:35:34;28.08;;;6.78;;
71806;SDS011;59655;42.590;23.364;2022-10-16T12:38:45;14.52;;;5.47;;
71806;SDS011;59655;42.590;23.364;2022-10-16T12:41:10;11.23;;;6.28;;
71806;SDS011;59655;42.590;23.364;2022-10-16T12:43:38;9.57;;;5.20;;
71806;SDS011;59655;42.590;23.364;2022-10-16T12:48:34;13.35;;;6.10;;
71806;SDS011;59655;42.590;23.364;2022-10-16T12:56:46;13.93;;;5.38;;
71806;SDS011;59655;42.590;23.364;2022-10-16T13:07:51;12.73;;;4.72;;
71806;SDS011;59655;42.590;23.364;2022-10-16T13:24:55;8.18;;;4.82;;
71806;SDS011;59655;42.590;23.364;2022-10-16T13:30:12;9.95;;;5.53;;
71806;SDS011;59655;42.590;23.364;2022-10-16T13:32:55;15.23;;;5.80;;
71806;SDS011;59655;42.590;23.364;2022-10-16T13:35:29;10.65;;;5.53;;
71806;SDS011;59655;42.590;23.364;2022-10-16T13:40:52;12.85;;;5.22;;
71806;SDS011;59655;42.590;23.364;2022-10-16T13:43:19;11.90;;;5.43;;
71806;SDS011;59655;42.590;23.364;2022-10-16T13:45:58;10.85;;;4.85;;
71806;SDS011;59655;42.590;23.364;2022-10-16T13:48:44;11.38;;;5.25;;
71806;SDS011;59655;42.590;23.364;2022-10-16T13:51:20;8.73;;;5.13;;
71806;SDS011;59655;42.590;23.364;2022-10-16T13:53:46;9.80;;;5.00;;
71806;SDS011;59655;42.590;23.364;2022-10-16T13:56:12;13.63;;;5.50;;
71806;SDS011;59655;42.590;23.364;2022-10-16T13:58:39;10.43;;;5.65;;
71806;SDS011;59655;42.590;23.364;2022-10-16T14:01:06;13.73;;;5.50;;
71806;SDS011;59655;42.590;23.364;2022-10-16T14:03:41;12.55;;;5.40;;
71806;SDS011;59655;42.590;23.364;2022-10-16T14:06:11;17.77;;;5.80;;
71806;SDS011;59655;42.590;23.364;2022-10-16T14:08:41;13.10;;;5.88;;
71806;SDS011;59655;42.590;23.364;2022-10-16T14:11:09;12.10;;;6.13;;
71806;SDS011;59655;42.590;23.364;2022-10-16T14:13:38;11.75;;;5.72;;
71806;SDS011;59655;42.590;23.364;2022-10-16T14:16:10;9.25;;;6.03;;
71806;SDS011;59655;42.590;23.364;2022-10-16T14:18:41;10.52;;;5.30;;
71806;SDS011;59655;42.590;23.364;2022-10-16T14:21:14;8.93;;;5.63;;
71806;SDS011;59655;42.590;23.364;2022-10-16T14:23:42;16.80;;;5.90;;
71806;SDS011;59655;42.590;23.364;2022-10-16T14:28:33;10.35;;;5.22;;
71806;SDS011;59655;42.590;23.364;2022-10-16T14:31:00;11.00;;;5.32;;
71806;SDS011;59655;42.590;23.364;2022-10-16T14:36:05;14.07;;;5.72;;
71806;SDS011;59655;42.590;23.364;2022-10-16T14:38:48;10.35;;;5.40;;
71806;SDS011;59655;42.590;23.364;2022-10-16T14:41:20;13.77;;;5.93;;
71806;SDS011;59655;42.590;23.364;2022-10-16T14:43:49;10.45;;;5.85;;
71806;SDS011;59655;42.590;23.364;2022-10-16T14:46:21;11.88;;;6.07;;
71806;SDS011;59655;42.590;23.364;2022-10-16T14:49:00;13.95;;;7.05;;
71806;SDS011;59655;42.590;23.364;2022-10-16T14:51:29;14.00;;;6.88;;
71806;SDS011;59655;42.590;23.364;2022-10-16T14:53:54;15.30;;;6.55;;
71806;SDS011;59655;42.590;23.364;2022-10-16T14:56:21;11.88;;;5.45;;
71806;SDS011;59655;42.590;23.364;2022-10-16T14:58:52;9.20;;;5.35;;
71806;SDS011;59655;42.590;23.364;2022-10-16T15:01:18;10.75;;;4.95;;
71806;SDS011;59655;42.590;23.364;2022-10-16T15:03:43;14.45;;;5.82;;
71806;SDS011;59655;42.590;23.364;2022-10-16T15:06:12;12.57;;;6.88;;
71806;SDS011;59655;42.590;23.364;2022-10-16T15:08:42;23.55;;;10.88;;
71806;SDS011;59655;42.590;23.364;2022-10-16T15:11:12;16.50;;;8.52;;
71806;SDS011;59655;42.590;23.364;2022-10-16T15:13:38;19.02;;;6.93;;
71806;SDS011;59655;42.590;23.364;2022-10-16T15:16:04;12.30;;;5.00;;
71806;SDS011;59655;42.590;23.364;2022-10-16T15:18:29;19.67;;;6.43;;
71806;SDS011;59655;42.590;23.364;2022-10-16T15:20:55;14.85;;;6.60;;
71806;SDS011;59655;42.590;23.364;2022-10-16T15:23:21;14.57;;;5.40;;
71806;SDS011;59655;42.590;23.364;2022-10-16T15:25:48;30.27;;;9.48;;
71806;SDS011;59655;42.590;23.364;2022-10-16T15:30:41;19.23;;;8.75;;
71806;SDS011;59655;42.590;23.364;2022-10-16T15:33:17;27.58;;;12.32;;
71806;SDS011;59655;42.590;23.364;2022-10-16T15:35:48;18.77;;;11.80;;
71806;SDS011;59655;42.590;23.364;2022-10-16T15:38:17;18.98;;;9.98;;
71806;SDS011;59655;42.590;23.364;2022-10-16T15:40:45;26.63;;;12.10;;
71806;SDS011;59655;42.590;23.364;2022-10-16T15:43:11;27.23;;;15.55;;
71806;SDS011;59655;42.590;23.364;2022-10-16T15:45:36;37.47;;;18.30;;
71806;SDS011;59655;42.590;23.364;2022-10-16T15:48:02;34.40;;;17.60;;
71806;SDS011;59655;42.590;23.364;2022-10-16T15:50:28;25.90;;;12.82;;
71806;SDS011;59655;42.590;23.364;2022-10-16T15:52:55;22.33;;;10.20;;
71806;SDS011;59655;42.590;23.364;2022-10-16T15:55:20;20.40;;;12.27;;
71806;SDS011;59655;42.590;23.364;2022-10-16T15:57:46;24.33;;;13.48;;
71806;SDS011;59655;42.590;23.364;2022-10-16T16:00:13;40.80;;;20.50;;
71806;SDS011;59655;42.590;23.364;2022-10-16T16:02:41;39.45;;;20.55;;
71806;SDS011;59655;42.590;23.364;2022-10-16T16:05:07;40.45;;;21.65;;
71806;SDS011;59655;42.590;23.364;2022-10-16T16:07:34;81.05;;;41.85;;
71806;SDS011;59655;42.590;23.364;2022-10-16T16:10:00;90.90;;;40.85;;
71806;SDS011;59655;42.590;23.364;2022-10-16T16:12:26;101.20;;;45.65;;
71806;SDS011;59655;42.590;23.364;2022-10-16T16:14:51;74.20;;;35.83;;
71806;SDS011;59655;42.590;23.364;2022-10-16T16:17:17;61.67;;;30.45;;
71806;SDS011;59655;42.590;23.364;2022-10-16T16:19:43;56.30;;;29.02;;
71806;SDS011;59655;42.590;23.364;2022-10-16T16:22:08;55.33;;;26.27;;
71806;SDS011;59655;42.590;23.364;2022-10-16T16:24:34;57.78;;;27.15;;
71806;SDS011;59655;42.590;23.364;2022-10-16T16:26:59;57.78;;;28.42;;
71806;SDS011;59655;42.590;23.364;2022-10-16T16:29:24;59.50;;;30.15;;
71806;SDS011;59655;42.590;23.364;2022-10-16T16:31:50;63.72;;;26.08;;
71806;SDS011;59655;42.590;23.364;2022-10-16T16:34:21;68.38;;;31.13;;
71806;SDS011;59655;42.590;23.364;2022-10-16T16:36:47;65.65;;;30.90;;
71806;SDS011;59655;42.590;23.364;2022-10-16T16:39:13;57.85;;;25.52;;
71806;SDS011;59655;42.590;23.364;2022-10-16T16:41:38;51.65;;;23.58;;
71806;SDS011;59655;42.590;23.364;2022-10-16T16:44:05;41.53;;;20.65;;
71806;SDS011;59655;42.590;23.364;2022-10-16T16:46:32;52.80;;;25.50;;
71806;SDS011;59655;42.590;23.364;2022-10-16T16:48:58;61.67;;;31.35;;
71806;SDS011;59655;42.590;23.364;2022-10-16T16:51:25;44.90;;;22.48;;
71806;SDS011;59655;42.590;23.364;2022-10-16T16:53:51;45.33;;;22.00;;
71806;SDS011;59655;42.590;23.364;2022-10-16T16:56:18;56.83;;;30.73;;
71806;SDS011;59655;42.590;23.364;2022-10-16T16:58:45;55.72;;;30.15;;
71806;SDS011;59655;42.590;23.364;2022-10-16T17:01:11;58.63;;;33.00;;
71806;SDS011;59655;42.590;23.364;2022-10-16T17:03:36;56.58;;;31.63;;
71806;SDS011;59655;42.590;23.364;2022-10-16T17:06:07;56.53;;;29.23;;